sensor_id;sensor_type;location;lat;lon;timestamp;P1;durP1;ratioP1;P2;durP2;ratioP2
44147;SDS011;29810;55.848;37.368;2022-07-21T00:00:21;1.95;;;0.80;;
44147;SDS011;29810;55.848;37.368;2022-07-21T00:03:24;1.42;;;0.98;;
44147;SDS011;29810;55.848;37.368;2022-07-21T00:06:26;3.05;;;0.90;;
44147;SDS011;29810;55.848;37.368;2022-07-21T00:09:28;1.77;;;0.90;;
44147;SDS011;29810;55.848;37.368;2022-07-21T00:12:29;4.72;;;1.08;;
44147;SDS011;29810;55.848;37.368;2022-07-21T00:15:31;1.10;;;0.80;;
44147;SDS011;29810;55.848;37.368;2022-07-21T00:18:32;3.80;;;0.88;;
44147;SDS011;29810;55.848;37.368;2022-07-21T00:21:35;1.62;;;0.88;;
44147;SDS011;29810;55.848;37.368;2022-07-21T00:24:37;1.83;;;1.02;;
44147;SDS011;29810;55.848;37.368;2022-07-21T00:27:38;2.12;;;0.80;;
44147;SDS011;29810;55.848;37.368;2022-07-21T00:30:40;3.83;;;1.08;;
44147;SDS011;29810;55.848;37.368;2022-07-21T00:33:41;2.22;;;0.90;;
44147;SDS011;29810;55.848;37.368;2022-07-21T00:36:43;2.15;;;0.98;;
44147;SDS011;29810;55.848;37.368;2022-07-21T00:39:45;1.33;;;0.80;;
44147;SDS011;29810;55.848;37.368;2022-07-21T00:42:46;1.62;;;0.90;;
44147;SDS011;29810;55.848;37.368;2022-07-21T00:45:48;2.00;;;0.90;;
44147;SDS011;29810;55.848;37.368;2022-07-21T00:48:49;1.35;;;0.70;;
44147;SDS011;29810;55.848;37.368;2022-07-21T00:51:51;1.45;;;0.80;;
44147;SDS011;29810;55.848;37.368;2022-07-21T00:54:52;1.60;;;0.93;;
44147;SDS011;29810;55.848;37.368;2022-07-21T00:57:54;1.30;;;0.90;;
44147;SDS011;29810;55.848;37.368;2022-07-21T01:00:56;2.55;;;1.02;;
44147;SDS011;29810;55.848;37.368;2022-07-21T01:03:57;1.45;;;1.10;;
44147;SDS011;29810;55.848;37.368;2022-07-21T01:07:02;2.55;;;1.00;;
44147;SDS011;29810;55.848;37.368;2022-07-21T01:10:05;2.40;;;1.20;;
44147;SDS011;29810;55.848;37.368;2022-07-21T01:13:07;3.97;;;1.10;;
44147;SDS011;29810;55.848;37.368;2022-07-21T01:16:09;2.87;;;1.02;;
44147;SDS011;29810;55.848;37.368;2022-07-21T01:19:11;2.25;;;1.25;;
44147;SDS011;29810;55.848;37.368;2022-07-21T01:22:13;2.70;;;1.60;;
44147;SDS011;29810;55.848;37.368;2022-07-21T01:25:15;2.53;;;1.10;;
44147;SDS011;29810;55.848;37.368;2022-07-21T01:28:18;3.03;;;1.62;;
44147;SDS011;29810;55.848;37.368;2022-07-21T01:31:19;3.10;;;1.35;;
44147;SDS011;29810;55.848;37.368;2022-07-21T01:34:21;2.75;;;1.40;;
44147;SDS011;29810;55.848;37.368;2022-07-21T01:37:23;3.45;;;1.45;;
44147;SDS011;29810;55.848;37.368;2022-07-21T01:40:29;2.85;;;1.62;;
44147;SDS011;29810;55.848;37.368;2022-07-21T01:44:04;2.87;;;1.30;;
44147;SDS011;29810;55.848;37.368;2022-07-21T01:50:23;2.87;;;1.50;;
44147;SDS011;29810;55.848;37.368;2022-07-21T01:53:27;2.40;;;1.40;;
44147;SDS011;29810;55.848;37.368;2022-07-21T01:56:29;2.65;;;1.33;;
44147;SDS011;29810;55.848;37.368;2022-07-21T01:59:31;2.33;;;1.30;;
44147;SDS011;29810;55.848;37.368;2022-07-21T02:02:32;3.37;;;1.48;;
44147;SDS011;29810;55.848;37.368;2022-07-21T02:05:34;3.70;;;1.40;;
44147;SDS011;29810;55.848;37.368;2022-07-21T02:08:35;2.00;;;1.27;;
44147;SDS011;29810;55.848;37.368;2022-07-21T02:11:38;2.53;;;1.10;;
44147;SDS011;29810;55.848;37.368;2022-07-21T02:14:39;2.25;;;1.30;;
44147;SDS011;29810;55.848;37.368;2022-07-21T02:17:41;2.20;;;1.30;;
44147;SDS011;29810;55.848;37.368;2022-07-21T02:20:42;2.95;;;1.70;;
44147;SDS011;29810;55.848;37.368;2022-07-21T02:23:46;2.80;;;1.60;;
44147;SDS011;29810;55.848;37.368;2022-07-21T02:26:47;2.42;;;1.45;;
44147;SDS011;29810;55.848;37.368;2022-07-21T02:29:49;2.67;;;1.80;;
44147;SDS011;29810;55.848;37.368;2022-07-21T02:32:50;3.30;;;2.10;;
44147;SDS011;29810;55.848;37.368;2022-07-21T02:35:52;2.90;;;1.75;;
44147;SDS011;29810;55.848;37.368;2022-07-21T02:38:53;4.15;;;2.10;;
44147;SDS011;29810;55.848;37.368;2022-07-21T02:41:55;3.47;;;1.77;;
44147;SDS011;29810;55.848;37.368;2022-07-21T02:44:56;2.75;;;2.20;;
44147;SDS011;29810;55.848;37.368;2022-07-21T02:51:09;2.97;;;2.10;;
44147;SDS011;29810;55.848;37.368;2022-07-21T02:54:11;2.97;;;2.10;;
44147;SDS011;29810;55.848;37.368;2022-07-21T02:57:13;2.92;;;2.00;;
44147;SDS011;29810;55.848;37.368;2022-07-21T03:00:14;2.37;;;2.00;;
44147;SDS011;29810;55.848;37.368;2022-07-21T03:03:16;3.15;;;2.37;;
44147;SDS011;29810;55.848;37.368;2022-07-21T03:06:18;3.30;;;2.28;;
44147;SDS011;29810;55.848;37.368;2022-07-21T03:09:20;3.15;;;2.30;;
44147;SDS011;29810;55.848;37.368;2022-07-21T03:12:21;3.12;;;2.10;;
44147;SDS011;29810;55.848;37.368;2022-07-21T03:15:23;2.87;;;2.33;;
44147;SDS011;29810;55.848;37.368;2022-07-21T03:18:24;2.55;;;2.25;;
44147;SDS011;29810;55.848;37.368;2022-07-21T03:21:26;3.45;;;2.75;;
44147;SDS011;29810;55.848;37.368;2022-07-21T03:24:28;3.03;;;2.72;;
44147;SDS011;29810;55.848;37.368;2022-07-21T03:27:30;3.65;;;3.35;;
44147;SDS011;29810;55.848;37.368;2022-07-21T03:30:32;5.50;;;4.50;;
44147;SDS011;29810;55.848;37.368;2022-07-21T03:33:34;6.15;;;5.62;;
44147;SDS011;29810;55.848;37.368;2022-07-21T03:36:36;7.10;;;6.50;;
44147;SDS011;29810;55.848;37.368;2022-07-21T03:39:37;7.72;;;7.10;;
44147;SDS011;29810;55.848;37.368;2022-07-21T03:42:39;6.60;;;5.90;;
44147;SDS011;29810;55.848;37.368;2022-07-21T03:45:41;6.70;;;6.10;;
44147;SDS011;29810;55.848;37.368;2022-07-21T03:48:43;6.18;;;5.68;;
44147;SDS011;29810;55.848;37.368;2022-07-21T03:51:44;6.35;;;5.75;;
44147;SDS011;29810;55.848;37.368;2022-07-21T03:54:46;5.07;;;4.57;;
44147;SDS011;29810;55.848;37.368;2022-07-21T03:57:49;5.53;;;5.03;;
44147;SDS011;29810;55.848;37.368;2022-07-21T04:03:55;4.32;;;3.67;;
44147;SDS011;29810;55.848;37.368;2022-07-21T04:06:56;5.07;;;4.28;;
44147;SDS011;29810;55.848;37.368;2022-07-21T04:09:58;4.60;;;3.47;;
44147;SDS011;29810;55.848;37.368;2022-07-21T04:13:00;4.07;;;2.87;;
44147;SDS011;29810;55.848;37.368;2022-07-21T04:16:02;4.45;;;3.00;;
44147;SDS011;29810;55.848;37.368;2022-07-21T04:19:04;3.70;;;2.70;;
44147;SDS011;29810;55.848;37.368;2022-07-21T04:22:07;3.25;;;2.85;;
44147;SDS011;29810;55.848;37.368;2022-07-21T04:25:08;3.97;;;2.62;;
44147;SDS011;29810;55.848;37.368;2022-07-21T04:28:12;4.25;;;2.80;;
44147;SDS011;29810;55.848;37.368;2022-07-21T04:31:13;2.80;;;2.50;;
44147;SDS011;29810;55.848;37.368;2022-07-21T04:34:15;3.10;;;2.67;;
44147;SDS011;29810;55.848;37.368;2022-07-21T04:37:16;3.40;;;2.20;;
44147;SDS011;29810;55.848;37.368;2022-07-21T04:40:18;2.62;;;2.15;;
44147;SDS011;29810;55.848;37.368;2022-07-21T04:43:19;2.50;;;2.20;;
44147;SDS011;29810;55.848;37.368;2022-07-21T04:46:21;3.65;;;2.30;;
44147;SDS011;29810;55.848;37.368;2022-07-21T04:49:22;3.47;;;2.22;;
44147;SDS011;29810;55.848;37.368;2022-07-21T04:52:24;3.53;;;2.22;;
44147;SDS011;29810;55.848;37.368;2022-07-21T04:55:25;3.17;;;2.20;;
44147;SDS011;29810;55.848;37.368;2022-07-21T04:58:27;3.78;;;2.25;;
44147;SDS011;29810;55.848;37.368;2022-07-21T05:01:29;3.97;;;2.10;;
44147;SDS011;29810;55.848;37.368;2022-07-21T05:04:30;3.25;;;2.30;;
44147;SDS011;29810;55.848;37.368;2022-07-21T05:07:32;2.20;;;2.00;;
44147;SDS011;29810;55.848;37.368;2022-07-21T05:10:34;2.42;;;2.20;;
44147;SDS011;29810;55.848;37.368;2022-07-21T05:13:35;2.20;;;2.00;;
44147;SDS011;29810;55.848;37.368;2022-07-21T05:16:37;3.00;;;2.10;;
44147;SDS011;29810;55.848;37.368;2022-07-21T05:19:38;3.85;;;2.00;;
44147;SDS011;29810;55.848;37.368;2022-07-21T05:22:40;3.25;;;2.10;;
44147;SDS011;29810;55.848;37.368;2022-07-21T05:25:42;2.30;;;1.80;;
44147;SDS011;29810;55.848;37.368;2022-07-21T05:28:44;2.58;;;1.70;;
44147;SDS011;29810;55.848;37.368;2022-07-21T05:31:45;2.20;;;1.80;;
44147;SDS011;29810;55.848;37.368;2022-07-21T05:34:47;2.20;;;1.40;;
44147;SDS011;29810;55.848;37.368;2022-07-21T05:37:48;2.65;;;1.60;;
44147;SDS011;29810;55.848;37.368;2022-07-21T05:40:50;2.50;;;1.75;;
44147;SDS011;29810;55.848;37.368;2022-07-21T05:43:51;2.80;;;1.80;;
44147;SDS011;29810;55.848;37.368;2022-07-21T05:46:53;2.35;;;1.60;;
44147;SDS011;29810;55.848;37.368;2022-07-21T05:49:54;2.10;;;1.75;;
44147;SDS011;29810;55.848;37.368;2022-07-21T05:52:56;2.00;;;1.65;;
44147;SDS011;29810;55.848;37.368;2022-07-21T05:55:57;2.95;;;1.70;;
44147;SDS011;29810;55.848;37.368;2022-07-21T05:58:59;3.53;;;1.62;;
44147;SDS011;29810;55.848;37.368;2022-07-21T06:02:00;2.50;;;1.75;;
44147;SDS011;29810;55.848;37.368;2022-07-21T06:05:02;2.00;;;1.70;;
44147;SDS011;29810;55.848;37.368;2022-07-21T06:08:04;2.10;;;1.60;;
44147;SDS011;29810;55.848;37.368;2022-07-21T06:11:09;3.72;;;1.85;;
44147;SDS011;29810;55.848;37.368;2022-07-21T06:14:12;2.50;;;1.60;;
44147;SDS011;29810;55.848;37.368;2022-07-21T06:17:14;2.17;;;1.70;;
44147;SDS011;29810;55.848;37.368;2022-07-21T06:20:15;2.08;;;1.58;;
44147;SDS011;29810;55.848;37.368;2022-07-21T06:23:17;3.00;;;1.60;;
44147;SDS011;29810;55.848;37.368;2022-07-21T06:26:19;3.17;;;1.50;;
44147;SDS011;29810;55.848;37.368;2022-07-21T06:29:21;3.20;;;1.80;;
44147;SDS011;29810;55.848;37.368;2022-07-21T06:32:23;6.07;;;1.75;;
44147;SDS011;29810;55.848;37.368;2022-07-21T06:35:25;3.17;;;1.60;;
44147;SDS011;29810;55.848;37.368;2022-07-21T06:38:26;2.53;;;1.48;;
44147;SDS011;29810;55.848;37.368;2022-07-21T06:41:28;3.20;;;1.50;;
44147;SDS011;29810;55.848;37.368;2022-07-21T06:44:29;1.50;;;1.33;;
44147;SDS011;29810;55.848;37.368;2022-07-21T06:47:31;2.03;;;1.42;;
44147;SDS011;29810;55.848;37.368;2022-07-21T06:50:33;1.87;;;1.50;;
44147;SDS011;29810;55.848;37.368;2022-07-21T06:53:36;3.37;;;1.60;;
44147;SDS011;29810;55.848;37.368;2022-07-21T06:56:37;2.08;;;1.58;;
44147;SDS011;29810;55.848;37.368;2022-07-21T06:59:39;3.55;;;1.50;;
44147;SDS011;29810;55.848;37.368;2022-07-21T07:02:41;3.92;;;1.85;;
44147;SDS011;29810;55.848;37.368;2022-07-21T07:05:46;2.92;;;1.80;;
44147;SDS011;29810;55.848;37.368;2022-07-21T07:08:48;3.08;;;1.50;;
44147;SDS011;29810;55.848;37.368;2022-07-21T07:11:50;3.65;;;1.40;;
44147;SDS011;29810;55.848;37.368;2022-07-21T07:14:56;2.37;;;1.30;;
44147;SDS011;29810;55.848;37.368;2022-07-21T07:17:58;3.25;;;1.55;;
44147;SDS011;29810;55.848;37.368;2022-07-21T07:20:59;2.20;;;1.52;;
44147;SDS011;29810;55.848;37.368;2022-07-21T07:24:01;2.80;;;1.33;;
44147;SDS011;29810;55.848;37.368;2022-07-21T07:27:03;3.83;;;1.67;;
44147;SDS011;29810;55.848;37.368;2022-07-21T07:30:06;1.87;;;1.42;;
44147;SDS011;29810;55.848;37.368;2022-07-21T07:33:09;1.95;;;1.45;;
44147;SDS011;29810;55.848;37.368;2022-07-21T07:36:10;3.72;;;2.03;;
44147;SDS011;29810;55.848;37.368;2022-07-21T07:39:13;2.20;;;1.70;;
44147;SDS011;29810;55.848;37.368;2022-07-21T07:42:16;5.53;;;1.87;;
44147;SDS011;29810;55.848;37.368;2022-07-21T07:45:18;3.28;;;1.75;;
44147;SDS011;29810;55.848;37.368;2022-07-21T07:48:20;2.87;;;1.98;;
44147;SDS011;29810;55.848;37.368;2022-07-21T07:51:21;3.05;;;1.83;;
44147;SDS011;29810;55.848;37.368;2022-07-21T07:54:23;2.33;;;1.77;;
44147;SDS011;29810;55.848;37.368;2022-07-21T07:57:24;3.95;;;2.30;;
44147;SDS011;29810;55.848;37.368;2022-07-21T08:00:26;4.47;;;2.22;;
44147;SDS011;29810;55.848;37.368;2022-07-21T08:03:28;3.15;;;1.90;;
44147;SDS011;29810;55.848;37.368;2022-07-21T08:06:30;2.78;;;1.92;;
44147;SDS011;29810;55.848;37.368;2022-07-21T08:09:31;2.45;;;1.70;;
44147;SDS011;29810;55.848;37.368;2022-07-21T08:12:33;1.90;;;1.70;;
44147;SDS011;29810;55.848;37.368;2022-07-21T08:15:35;2.53;;;1.70;;
44147;SDS011;29810;55.848;37.368;2022-07-21T08:18:36;2.10;;;1.70;;
44147;SDS011;29810;55.848;37.368;2022-07-21T08:21:38;2.47;;;1.77;;
44147;SDS011;29810;55.848;37.368;2022-07-21T08:24:39;2.78;;;1.85;;
44147;SDS011;29810;55.848;37.368;2022-07-21T08:27:41;4.18;;;1.80;;
44147;SDS011;29810;55.848;37.368;2022-07-21T08:30:43;2.53;;;1.80;;
44147;SDS011;29810;55.848;37.368;2022-07-21T08:33:45;3.37;;;2.30;;
44147;SDS011;29810;55.848;37.368;2022-07-21T08:36:46;3.50;;;2.30;;
44147;SDS011;29810;55.848;37.368;2022-07-21T08:39:51;5.15;;;2.45;;
44147;SDS011;29810;55.848;37.368;2022-07-21T08:42:53;3.28;;;2.80;;
44147;SDS011;29810;55.848;37.368;2022-07-21T08:45:55;2.50;;;1.90;;
44147;SDS011;29810;55.848;37.368;2022-07-21T08:48:57;4.40;;;1.90;;
44147;SDS011;29810;55.848;37.368;2022-07-21T08:52:00;3.67;;;2.78;;
44147;SDS011;29810;55.848;37.368;2022-07-21T08:55:02;3.20;;;2.22;;
44147;SDS011;29810;55.848;37.368;2022-07-21T08:58:06;3.10;;;1.98;;
44147;SDS011;29810;55.848;37.368;2022-07-21T09:01:10;3.60;;;2.70;;
44147;SDS011;29810;55.848;37.368;2022-07-21T09:04:20;6.97;;;4.00;;
44147;SDS011;29810;55.848;37.368;2022-07-21T09:07:21;5.65;;;3.72;;
44147;SDS011;29810;55.848;37.368;2022-07-21T09:10:26;3.85;;;2.08;;
44147;SDS011;29810;55.848;37.368;2022-07-21T09:13:29;3.60;;;2.12;;
44147;SDS011;29810;55.848;37.368;2022-07-21T09:16:31;4.00;;;2.83;;
44147;SDS011;29810;55.848;37.368;2022-07-21T09:19:36;3.60;;;2.28;;
44147;SDS011;29810;55.848;37.368;2022-07-21T09:23:00;3.03;;;2.00;;
44147;SDS011;29810;55.848;37.368;2022-07-21T09:26:12;2.28;;;1.50;;
44147;SDS011;29810;55.848;37.368;2022-07-21T09:29:13;5.18;;;1.48;;
44147;SDS011;29810;55.848;37.368;2022-07-21T09:35:20;2.15;;;1.35;;
44147;SDS011;29810;55.848;37.368;2022-07-21T09:38:22;2.20;;;1.48;;
44147;SDS011;29810;55.848;37.368;2022-07-21T09:41:24;2.75;;;1.35;;
44147;SDS011;29810;55.848;37.368;2022-07-21T09:44:30;1.98;;;1.40;;
44147;SDS011;29810;55.848;37.368;2022-07-21T09:47:33;3.53;;;1.60;;
44147;SDS011;29810;55.848;37.368;2022-07-21T09:50:35;2.87;;;1.55;;
44147;SDS011;29810;55.848;37.368;2022-07-21T09:53:50;3.75;;;1.40;;
44147;SDS011;29810;55.848;37.368;2022-07-21T09:56:54;2.50;;;1.30;;
44147;SDS011;29810;55.848;37.368;2022-07-21T09:59:56;3.17;;;1.58;;
44147;SDS011;29810;55.848;37.368;2022-07-21T10:02:59;3.75;;;1.30;;
44147;SDS011;29810;55.848;37.368;2022-07-21T10:06:02;2.65;;;1.20;;
44147;SDS011;29810;55.848;37.368;2022-07-21T10:09:08;2.58;;;1.30;;
44147;SDS011;29810;55.848;37.368;2022-07-21T10:12:11;1.70;;;1.30;;
44147;SDS011;29810;55.848;37.368;2022-07-21T10:15:12;2.75;;;1.30;;
44147;SDS011;29810;55.848;37.368;2022-07-21T10:18:14;2.87;;;1.20;;
44147;SDS011;29810;55.848;37.368;2022-07-21T10:24:54;1.98;;;1.30;;
44147;SDS011;29810;55.848;37.368;2022-07-21T10:31:23;2.00;;;1.37;;
44147;SDS011;29810;55.848;37.368;2022-07-21T10:34:34;3.00;;;1.60;;
44147;SDS011;29810;55.848;37.368;2022-07-21T10:40:43;2.08;;;1.30;;
44147;SDS011;29810;55.848;37.368;2022-07-21T10:43:45;2.30;;;1.35;;
44147;SDS011;29810;55.848;37.368;2022-07-21T10:46:52;2.90;;;1.50;;
44147;SDS011;29810;55.848;37.368;2022-07-21T10:50:31;2.10;;;1.30;;
44147;SDS011;29810;55.848;37.368;2022-07-21T10:53:32;3.35;;;1.55;;
44147;SDS011;29810;55.848;37.368;2022-07-21T10:56:34;2.08;;;1.12;;
44147;SDS011;29810;55.848;37.368;2022-07-21T11:03:17;2.20;;;1.50;;
44147;SDS011;29810;55.848;37.368;2022-07-21T11:06:22;4.07;;;2.80;;
44147;SDS011;29810;55.848;37.368;2022-07-21T11:09:25;3.00;;;1.67;;
44147;SDS011;29810;55.848;37.368;2022-07-21T11:12:54;4.05;;;1.30;;
44147;SDS011;29810;55.848;37.368;2022-07-21T11:16:00;1.90;;;1.48;;
44147;SDS011;29810;55.848;37.368;2022-07-21T11:19:01;2.65;;;1.73;;
44147;SDS011;29810;55.848;37.368;2022-07-21T11:22:09;3.25;;;1.50;;
44147;SDS011;29810;55.848;37.368;2022-07-21T11:25:11;4.03;;;1.50;;
44147;SDS011;29810;55.848;37.368;2022-07-21T11:28:18;2.87;;;1.87;;
44147;SDS011;29810;55.848;37.368;2022-07-21T11:31:20;4.90;;;2.47;;
44147;SDS011;29810;55.848;37.368;2022-07-21T11:34:23;5.18;;;2.85;;
44147;SDS011;29810;55.848;37.368;2022-07-21T11:37:32;4.40;;;2.45;;
44147;SDS011;29810;55.848;37.368;2022-07-21T11:40:37;4.72;;;2.35;;
44147;SDS011;29810;55.848;37.368;2022-07-21T11:43:42;4.93;;;2.20;;
44147;SDS011;29810;55.848;37.368;2022-07-21T11:46:47;4.50;;;2.28;;
44147;SDS011;29810;55.848;37.368;2022-07-21T11:49:51;2.78;;;2.08;;
44147;SDS011;29810;55.848;37.368;2022-07-21T11:52:55;2.62;;;1.92;;
44147;SDS011;29810;55.848;37.368;2022-07-21T11:55:57;5.05;;;2.28;;
44147;SDS011;29810;55.848;37.368;2022-07-21T11:59:08;4.07;;;2.20;;
44147;SDS011;29810;55.848;37.368;2022-07-21T12:02:12;4.28;;;2.40;;
44147;SDS011;29810;55.848;37.368;2022-07-21T12:05:22;3.83;;;2.12;;
44147;SDS011;29810;55.848;37.368;2022-07-21T12:08:25;2.67;;;2.10;;
44147;SDS011;29810;55.848;37.368;2022-07-21T12:11:32;2.55;;;1.95;;
44147;SDS011;29810;55.848;37.368;2022-07-21T12:14:45;3.22;;;2.25;;
44147;SDS011;29810;55.848;37.368;2022-07-21T12:17:50;3.78;;;2.00;;
44147;SDS011;29810;55.848;37.368;2022-07-21T12:21:03;4.35;;;1.98;;
44147;SDS011;29810;55.848;37.368;2022-07-21T12:24:07;5.68;;;1.90;;
44147;SDS011;29810;55.848;37.368;2022-07-21T12:27:09;8.63;;;2.30;;
44147;SDS011;29810;55.848;37.368;2022-07-21T12:33:35;3.10;;;2.12;;
44147;SDS011;29810;55.848;37.368;2022-07-21T12:36:37;2.62;;;1.85;;
44147;SDS011;29810;55.848;37.368;2022-07-21T12:39:39;2.45;;;2.20;;
44147;SDS011;29810;55.848;37.368;2022-07-21T12:43:12;3.67;;;2.20;;
44147;SDS011;29810;55.848;37.368;2022-07-21T12:46:16;4.03;;;2.10;;
44147;SDS011;29810;55.848;37.368;2022-07-21T12:49:21;3.12;;;2.10;;
44147;SDS011;29810;55.848;37.368;2022-07-21T12:52:23;2.67;;;1.90;;
44147;SDS011;29810;55.848;37.368;2022-07-21T12:55:26;4.25;;;1.90;;
44147;SDS011;29810;55.848;37.368;2022-07-21T12:58:27;4.65;;;2.03;;
44147;SDS011;29810;55.848;37.368;2022-07-21T13:01:30;5.70;;;2.20;;
44147;SDS011;29810;55.848;37.368;2022-07-21T13:04:33;3.15;;;2.10;;
44147;SDS011;29810;55.848;37.368;2022-07-21T13:07:35;4.47;;;2.15;;
44147;SDS011;29810;55.848;37.368;2022-07-21T13:10:37;4.45;;;2.28;;
44147;SDS011;29810;55.848;37.368;2022-07-21T13:13:38;4.60;;;2.17;;
44147;SDS011;29810;55.848;37.368;2022-07-21T13:16:40;3.95;;;1.92;;
44147;SDS011;29810;55.848;37.368;2022-07-21T13:19:42;4.35;;;1.80;;
44147;SDS011;29810;55.848;37.368;2022-07-21T13:22:43;4.70;;;2.08;;
44147;SDS011;29810;55.848;37.368;2022-07-21T13:25:46;3.75;;;2.20;;
44147;SDS011;29810;55.848;37.368;2022-07-21T13:28:49;3.87;;;2.00;;
44147;SDS011;29810;55.848;37.368;2022-07-21T13:31:50;3.62;;;1.90;;
44147;SDS011;29810;55.848;37.368;2022-07-21T13:34:52;4.00;;;2.12;;
44147;SDS011;29810;55.848;37.368;2022-07-21T13:37:54;6.40;;;1.87;;
44147;SDS011;29810;55.848;37.368;2022-07-21T13:40:57;7.00;;;1.70;;
44147;SDS011;29810;55.848;37.368;2022-07-21T13:43:59;4.10;;;1.80;;
44147;SDS011;29810;55.848;37.368;2022-07-21T13:47:01;6.40;;;1.98;;
44147;SDS011;29810;55.848;37.368;2022-07-21T13:50:04;2.67;;;1.90;;
44147;SDS011;29810;55.848;37.368;2022-07-21T13:53:06;5.15;;;1.98;;
44147;SDS011;29810;55.848;37.368;2022-07-21T13:56:07;5.00;;;2.20;;
44147;SDS011;29810;55.848;37.368;2022-07-21T13:59:09;3.50;;;2.20;;
44147;SDS011;29810;55.848;37.368;2022-07-21T14:02:11;3.85;;;1.80;;
44147;SDS011;29810;55.848;37.368;2022-07-21T14:05:13;3.65;;;1.55;;
44147;SDS011;29810;55.848;37.368;2022-07-21T14:08:15;2.12;;;1.50;;
44147;SDS011;29810;55.848;37.368;2022-07-21T14:11:17;2.60;;;1.50;;
44147;SDS011;29810;55.848;37.368;2022-07-21T14:14:18;2.40;;;1.67;;
44147;SDS011;29810;55.848;37.368;2022-07-21T14:17:23;2.90;;;1.85;;
44147;SDS011;29810;55.848;37.368;2022-07-21T14:20:25;4.68;;;1.98;;
44147;SDS011;29810;55.848;37.368;2022-07-21T14:23:27;2.35;;;1.70;;
44147;SDS011;29810;55.848;37.368;2022-07-21T14:26:28;3.55;;;1.90;;
44147;SDS011;29810;55.848;37.368;2022-07-21T14:29:30;5.22;;;2.42;;
44147;SDS011;29810;55.848;37.368;2022-07-21T14:32:32;5.00;;;2.17;;
44147;SDS011;29810;55.848;37.368;2022-07-21T14:35:33;3.80;;;2.10;;
44147;SDS011;29810;55.848;37.368;2022-07-21T14:38:35;2.92;;;1.77;;
44147;SDS011;29810;55.848;37.368;2022-07-21T14:41:37;2.67;;;1.75;;
44147;SDS011;29810;55.848;37.368;2022-07-21T14:44:38;3.87;;;2.00;;
44147;SDS011;29810;55.848;37.368;2022-07-21T14:47:40;4.47;;;2.15;;
44147;SDS011;29810;55.848;37.368;2022-07-21T14:50:42;3.37;;;1.95;;
44147;SDS011;29810;55.848;37.368;2022-07-21T14:53:43;5.45;;;1.80;;
44147;SDS011;29810;55.848;37.368;2022-07-21T14:56:45;4.82;;;1.83;;
44147;SDS011;29810;55.848;37.368;2022-07-21T14:59:47;3.55;;;1.70;;
44147;SDS011;29810;55.848;37.368;2022-07-21T15:02:48;3.95;;;1.85;;
44147;SDS011;29810;55.848;37.368;2022-07-21T15:05:50;2.92;;;1.42;;
44147;SDS011;29810;55.848;37.368;2022-07-21T15:08:51;3.12;;;1.50;;
44147;SDS011;29810;55.848;37.368;2022-07-21T15:11:53;3.70;;;1.62;;
44147;SDS011;29810;55.848;37.368;2022-07-21T15:14:54;3.92;;;1.80;;
44147;SDS011;29810;55.848;37.368;2022-07-21T15:17:56;2.22;;;1.42;;
44147;SDS011;29810;55.848;37.368;2022-07-21T15:20:58;4.07;;;1.40;;
44147;SDS011;29810;55.848;37.368;2022-07-21T15:23:59;4.68;;;1.55;;
44147;SDS011;29810;55.848;37.368;2022-07-21T15:27:01;3.75;;;1.35;;
44147;SDS011;29810;55.848;37.368;2022-07-21T15:30:04;2.83;;;1.30;;
44147;SDS011;29810;55.848;37.368;2022-07-21T15:33:07;4.15;;;1.70;;
44147;SDS011;29810;55.848;37.368;2022-07-21T15:36:09;2.60;;;1.35;;
44147;SDS011;29810;55.848;37.368;2022-07-21T15:39:11;2.75;;;1.60;;
44147;SDS011;29810;55.848;37.368;2022-07-21T15:42:13;3.10;;;1.40;;
44147;SDS011;29810;55.848;37.368;2022-07-21T15:45:14;4.28;;;1.33;;
44147;SDS011;29810;55.848;37.368;2022-07-21T15:48:17;2.97;;;1.50;;
44147;SDS011;29810;55.848;37.368;2022-07-21T15:51:18;3.10;;;1.50;;
44147;SDS011;29810;55.848;37.368;2022-07-21T15:54:20;3.22;;;1.70;;
44147;SDS011;29810;55.848;37.368;2022-07-21T15:57:21;4.68;;;1.70;;
44147;SDS011;29810;55.848;37.368;2022-07-21T16:00:23;3.85;;;1.60;;
44147;SDS011;29810;55.848;37.368;2022-07-21T16:03:25;2.87;;;1.48;;
44147;SDS011;29810;55.848;37.368;2022-07-21T16:06:27;3.97;;;1.52;;
44147;SDS011;29810;55.848;37.368;2022-07-21T16:09:28;3.05;;;2.12;;
44147;SDS011;29810;55.848;37.368;2022-07-21T16:12:33;5.30;;;1.98;;
44147;SDS011;29810;55.848;37.368;2022-07-21T16:15:35;5.12;;;1.70;;
44147;SDS011;29810;55.848;37.368;2022-07-21T16:18:36;3.85;;;1.65;;
44147;SDS011;29810;55.848;37.368;2022-07-21T16:21:38;5.00;;;1.85;;
44147;SDS011;29810;55.848;37.368;2022-07-21T16:24:40;3.80;;;1.90;;
44147;SDS011;29810;55.848;37.368;2022-07-21T16:27:42;4.12;;;1.80;;
44147;SDS011;29810;55.848;37.368;2022-07-21T16:30:45;4.68;;;1.70;;
44147;SDS011;29810;55.848;37.368;2022-07-21T16:33:47;3.35;;;1.85;;
44147;SDS011;29810;55.848;37.368;2022-07-21T16:36:49;2.10;;;1.70;;
44147;SDS011;29810;55.848;37.368;2022-07-21T16:39:54;3.40;;;1.90;;
44147;SDS011;29810;55.848;37.368;2022-07-21T16:42:56;3.42;;;1.90;;
44147;SDS011;29810;55.848;37.368;2022-07-21T16:45:58;2.65;;;1.75;;
44147;SDS011;29810;55.848;37.368;2022-07-21T16:48:59;4.55;;;2.00;;
44147;SDS011;29810;55.848;37.368;2022-07-21T16:52:01;4.97;;;1.67;;
44147;SDS011;29810;55.848;37.368;2022-07-21T16:55:03;5.25;;;2.12;;
44147;SDS011;29810;55.848;37.368;2022-07-21T16:58:06;6.80;;;1.67;;
44147;SDS011;29810;55.848;37.368;2022-07-21T17:01:08;3.15;;;2.00;;
44147;SDS011;29810;55.848;37.368;2022-07-21T17:04:10;2.80;;;1.55;;
44147;SDS011;29810;55.848;37.368;2022-07-21T17:07:11;3.17;;;1.60;;
44147;SDS011;29810;55.848;37.368;2022-07-21T17:10:14;4.22;;;1.67;;
44147;SDS011;29810;55.848;37.368;2022-07-21T17:13:15;4.20;;;1.90;;
44147;SDS011;29810;55.848;37.368;2022-07-21T17:16:17;2.97;;;1.80;;
44147;SDS011;29810;55.848;37.368;2022-07-21T17:19:19;3.65;;;1.67;;
44147;SDS011;29810;55.848;37.368;2022-07-21T17:22:20;2.83;;;1.80;;
44147;SDS011;29810;55.848;37.368;2022-07-21T17:25:22;2.67;;;1.70;;
44147;SDS011;29810;55.848;37.368;2022-07-21T17:28:26;3.22;;;1.90;;
44147;SDS011;29810;55.848;37.368;2022-07-21T17:31:27;3.35;;;1.90;;
44147;SDS011;29810;55.848;37.368;2022-07-21T17:34:29;3.62;;;1.95;;
44147;SDS011;29810;55.848;37.368;2022-07-21T17:37:30;4.03;;;1.92;;
44147;SDS011;29810;55.848;37.368;2022-07-21T17:40:33;3.05;;;2.28;;
44147;SDS011;29810;55.848;37.368;2022-07-21T17:43:35;3.47;;;2.28;;
44147;SDS011;29810;55.848;37.368;2022-07-21T17:46:37;4.70;;;2.20;;
44147;SDS011;29810;55.848;37.368;2022-07-21T17:49:40;3.20;;;2.30;;
44147;SDS011;29810;55.848;37.368;2022-07-21T17:52:41;3.47;;;2.03;;
44147;SDS011;29810;55.848;37.368;2022-07-21T17:55:43;3.75;;;2.33;;
44147;SDS011;29810;55.848;37.368;2022-07-21T17:58:45;3.67;;;2.10;;
44147;SDS011;29810;55.848;37.368;2022-07-21T18:01:47;2.42;;;2.10;;
44147;SDS011;29810;55.848;37.368;2022-07-21T18:04:49;3.03;;;2.00;;
44147;SDS011;29810;55.848;37.368;2022-07-21T18:07:51;6.03;;;2.45;;
44147;SDS011;29810;55.848;37.368;2022-07-21T18:10:56;4.50;;;2.57;;
44147;SDS011;29810;55.848;37.368;2022-07-21T18:13:57;3.28;;;2.53;;
44147;SDS011;29810;55.848;37.368;2022-07-21T18:16:59;3.97;;;2.70;;
44147;SDS011;29810;55.848;37.368;2022-07-21T18:20:01;4.25;;;3.03;;
44147;SDS011;29810;55.848;37.368;2022-07-21T18:23:04;3.42;;;2.67;;
44147;SDS011;29810;55.848;37.368;2022-07-21T18:26:06;2.97;;;2.42;;
44147;SDS011;29810;55.848;37.368;2022-07-21T18:29:08;4.35;;;3.00;;
44147;SDS011;29810;55.848;37.368;2022-07-21T18:32:09;5.70;;;3.05;;